createdAt,value
2023-04-04T00:01:21.215Z,0.40
2023-04-04T00:03:51.687Z,0.50
2023-04-04T00:06:19.114Z,0.50
2023-04-04T00:08:45.638Z,0.50
2023-04-04T00:11:12.042Z,0.50
2023-04-04T00:13:38.990Z,0.40
2023-04-04T00:16:05.606Z,0.60
2023-04-04T00:18:32.628Z,0.60
2023-04-04T00:20:59.416Z,0.50
2023-04-04T00:23:25.711Z,0.60
2023-04-04T00:25:52.565Z,0.57
2023-04-04T00:28:19.426Z,0.40
2023-04-04T00:30:46.866Z,0.60
2023-04-04T00:33:14.186Z,0.43
2023-04-04T00:35:41.270Z,0.82
2023-04-04T00:38:07.966Z,0.65
2023-04-04T00:40:54.586Z,0.60
2023-04-04T00:43:21.141Z,0.50
2023-04-04T00:45:47.622Z,0.32
2023-04-04T00:48:14.071Z,0.60
2023-04-04T00:50:40.903Z,0.60
2023-04-04T00:53:07.584Z,0.40
2023-04-04T00:55:34.034Z,0.63
2023-04-04T00:58:00.549Z,0.50
2023-04-04T01:00:27.541Z,0.40
2023-04-04T01:02:53.895Z,0.40
2023-04-04T01:05:20.357Z,0.30
2023-04-04T01:07:46.884Z,0.50
2023-04-04T01:10:13.314Z,0.40
2023-04-04T01:12:39.710Z,0.43
2023-04-04T01:15:06.454Z,0.43
2023-04-04T01:17:32.963Z,0.40
2023-04-04T01:20:13.894Z,0.95
2023-04-04T01:22:40.761Z,0.80
2023-04-04T01:25:08.045Z,0.60
2023-04-04T01:27:34.521Z,0.60
2023-04-04T01:30:01.103Z,0.50
2023-04-04T01:32:27.487Z,0.55
2023-04-04T01:35:01.944Z,0.45
2023-04-04T01:37:40.611Z,0.50
2023-04-04T01:40:06.910Z,0.52
2023-04-04T01:42:33.604Z,0.50
2023-04-04T01:45:00.052Z,0.68
2023-04-04T01:47:26.436Z,0.80
2023-04-04T01:49:54.102Z,0.80
2023-04-04T01:52:20.657Z,0.55
2023-04-04T01:54:46.958Z,0.50
2023-04-04T01:57:13.478Z,0.50
2023-04-04T01:59:39.820Z,0.38
2023-04-04T02:02:06.698Z,0.30
2023-04-04T02:04:33.064Z,0.50
2023-04-04T02:07:00.090Z,0.50
2023-04-04T02:09:26.540Z,0.50
2023-04-04T02:11:52.889Z,0.50
2023-04-04T02:14:20.121Z,0.50
2023-04-04T02:16:46.485Z,0.50
2023-04-04T02:19:13.063Z,0.50
2023-04-04T02:21:39.396Z,0.55
2023-04-04T02:24:05.922Z,0.60
2023-04-04T02:26:32.263Z,0.90
2023-04-04T02:28:58.654Z,0.50
2023-04-04T02:31:25.006Z,0.45
2023-04-04T02:33:51.351Z,0.50
2023-04-04T02:36:17.786Z,0.60
2023-04-04T02:38:44.074Z,0.50
2023-04-04T02:41:10.602Z,0.40
2023-04-04T02:43:36.912Z,0.50
2023-04-04T02:46:10.991Z,0.50
2023-04-04T02:48:41.188Z,0.50
2023-04-04T02:51:07.491Z,0.50
2023-04-04T02:53:33.867Z,0.30
2023-04-04T02:56:02.677Z,0.40
2023-04-04T02:58:29.080Z,0.50
2023-04-04T03:00:56.010Z,0.55
2023-04-04T03:03:22.827Z,0.50
2023-04-04T03:05:49.708Z,0.40
2023-04-04T03:08:16.312Z,0.40
2023-04-04T03:10:42.785Z,0.50
2023-04-04T03:13:09.281Z,0.60
2023-04-04T03:15:36.025Z,0.43
2023-04-04T03:18:03.266Z,0.40
2023-04-04T03:20:29.794Z,0.30
2023-04-04T03:22:57.785Z,0.63
2023-04-04T03:25:24.232Z,0.50
2023-04-04T03:27:50.745Z,0.43
2023-04-04T03:30:17.067Z,0.43
2023-04-04T03:32:43.655Z,0.40
2023-04-04T03:35:10.295Z,0.57
2023-04-04T03:37:36.634Z,0.30
2023-04-04T03:40:03.222Z,0.40
2023-04-04T03:42:33.146Z,0.60
2023-04-04T03:44:59.476Z,0.52
2023-04-04T03:47:25.951Z,0.40
2023-04-04T03:49:52.759Z,0.85
2023-04-04T03:52:19.108Z,2.25
2023-04-04T03:54:46.169Z,1.25
2023-04-04T03:57:12.666Z,2.25
2023-04-04T03:59:39.081Z,1.27
2023-04-04T04:02:05.399Z,1.00
2023-04-04T04:04:31.827Z,0.95
2023-04-04T04:06:58.577Z,0.60
2023-04-04T04:09:24.962Z,0.40
2023-04-04T04:11:51.320Z,0.60
2023-04-04T04:14:18.172Z,0.70
2023-04-04T04:16:44.477Z,0.80
2023-04-04T04:19:10.883Z,0.80
2023-04-04T04:21:37.237Z,0.80
2023-04-04T04:24:03.643Z,0.70
2023-04-04T04:26:30.552Z,0.80
2023-04-04T04:28:57.178Z,0.80
2023-04-04T04:31:23.634Z,0.68
2023-04-04T04:33:52.335Z,0.80
2023-04-04T04:36:18.897Z,0.73
2023-04-04T04:38:45.246Z,0.75
2023-04-04T04:41:11.736Z,0.70
2023-04-04T04:43:38.036Z,0.70
2023-04-04T04:46:04.490Z,0.70
2023-04-04T04:48:30.837Z,0.68
2023-04-04T04:50:57.249Z,0.60
2023-04-04T04:53:23.641Z,0.50
2023-04-04T04:55:52.228Z,0.57
2023-04-04T04:58:22.545Z,0.47
2023-04-04T05:00:49.013Z,0.60
2023-04-04T05:03:15.459Z,0.50
2023-04-04T05:05:44.808Z,0.60
2023-04-04T05:08:11.214Z,0.50
2023-04-04T05:10:37.843Z,0.40
2023-04-04T05:13:04.551Z,0.38
2023-04-04T05:15:31.531Z,0.40
2023-04-04T05:17:58.267Z,0.50
2023-04-04T05:20:24.704Z,0.43
2023-04-04T05:22:51.727Z,0.50
2023-04-04T05:25:18.150Z,0.60
2023-04-04T05:27:47.601Z,0.50
2023-04-04T05:30:14.333Z,0.80
2023-04-04T05:32:41.031Z,0.95
2023-04-04T05:35:07.647Z,0.65
2023-04-04T05:37:34.834Z,0.50
2023-04-04T05:40:01.548Z,0.60
2023-04-04T05:42:28.036Z,0.60
2023-04-04T05:44:54.414Z,0.70
2023-04-04T05:47:21.950Z,0.98
2023-04-04T05:49:48.566Z,0.60
2023-04-04T05:52:14.951Z,0.50
2023-04-04T05:54:41.594Z,0.55
2023-04-04T05:57:08.777Z,0.50
2023-04-04T05:59:35.108Z,0.40
2023-04-04T06:02:01.857Z,0.30
2023-04-04T06:04:28.301Z,0.38
2023-04-04T06:06:55.215Z,0.20
2023-04-04T06:09:21.505Z,0.28
2023-04-04T06:11:47.997Z,0.20
2023-04-04T06:14:15.244Z,0.20
2023-04-04T06:16:41.757Z,0.28
2023-04-04T06:19:08.164Z,0.20
2023-04-04T06:21:34.547Z,0.30
2023-04-04T06:24:00.916Z,0.30
2023-04-04T06:26:27.630Z,0.40
2023-04-04T06:28:55.009Z,0.28
2023-04-04T06:31:21.352Z,0.50
2023-04-04T06:33:47.661Z,1.45
2023-04-04T06:36:14.128Z,0.30
2023-04-04T06:38:40.571Z,0.30
2023-04-04T06:41:07.200Z,0.30
2023-04-04T06:43:33.716Z,0.20
2023-04-04T06:46:00.106Z,0.40
2023-04-04T06:48:26.483Z,0.40
2023-04-04T06:50:52.820Z,0.50
2023-04-04T06:53:19.257Z,0.75
2023-04-04T06:55:45.712Z,0.60
2023-04-04T06:58:12.166Z,0.47
2023-04-04T07:00:38.793Z,0.50
2023-04-04T07:03:05.512Z,0.52
2023-04-04T07:05:32.370Z,0.55
2023-04-04T07:07:58.795Z,0.40
2023-04-04T07:10:25.997Z,0.47
2023-04-04T07:12:52.558Z,0.45
2023-04-04T07:15:18.975Z,0.68
2023-04-04T07:17:45.387Z,0.50
2023-04-04T07:20:11.931Z,0.57
2023-04-04T07:22:39.514Z,0.68
2023-04-04T07:25:06.330Z,0.90
2023-04-04T07:27:32.736Z,0.90
2023-04-04T07:29:59.532Z,1.08
2023-04-04T07:32:25.861Z,1.20
2023-04-04T07:34:52.364Z,1.00
2023-04-04T07:37:18.733Z,1.48
2023-04-04T07:39:45.409Z,1.15
2023-04-04T07:42:11.853Z,1.10
2023-04-04T07:44:38.344Z,1.25
2023-04-04T07:47:09.875Z,1.55
2023-04-04T07:52:03.233Z,1.85
2023-04-04T07:54:29.592Z,1.70
2023-04-04T07:56:55.991Z,3.35
2023-04-04T07:59:22.322Z,2.85
2023-04-04T08:01:48.688Z,2.00
2023-04-04T08:04:15.150Z,1.92
2023-04-04T08:06:41.664Z,1.70
2023-04-04T08:09:08.191Z,2.20
2023-04-04T08:11:34.656Z,4.45
2023-04-04T08:14:00.996Z,4.05
2023-04-04T08:16:27.679Z,3.50
2023-04-04T08:18:54.333Z,2.58
2023-04-04T08:21:20.629Z,3.70
2023-04-04T08:23:46.915Z,3.33
2023-04-04T08:26:13.389Z,3.72
2023-04-04T08:28:39.792Z,3.13
2023-04-04T08:31:06.319Z,2.70
2023-04-04T08:33:44.546Z,2.13
2023-04-04T08:36:13.861Z,3.30
2023-04-04T08:38:40.237Z,2.55
2023-04-04T08:41:06.902Z,2.47
2023-04-04T08:43:34.444Z,3.17
2023-04-04T08:46:02.726Z,3.35
2023-04-04T08:48:30.293Z,3.10
2023-04-04T08:50:59.579Z,3.10
2023-04-04T08:53:26.773Z,3.47
2023-04-04T08:55:54.456Z,2.33
2023-04-04T08:58:21.295Z,2.00
2023-04-04T09:00:47.756Z,2.95
2023-04-04T09:03:20.302Z,2.50
2023-04-04T09:05:47.558Z,2.20
2023-04-04T09:08:14.738Z,1.85
2023-04-04T09:10:43.974Z,1.70
2023-04-04T09:13:15.996Z,2.22
2023-04-04T09:15:45.906Z,2.33
2023-04-04T09:18:12.511Z,3.22
2023-04-04T09:20:42.986Z,2.67
2023-04-04T09:23:17.508Z,2.33
2023-04-04T09:28:19.502Z,3.35
2023-04-04T09:30:48.537Z,2.70
2023-04-04T09:33:16.211Z,2.25
2023-04-04T09:35:46.956Z,2.60
2023-04-04T09:38:14.471Z,3.60
2023-04-04T09:40:41.559Z,3.55
2023-04-04T09:43:08.888Z,3.97
2023-04-04T09:45:36.549Z,3.03
2023-04-04T09:48:03.038Z,2.85
2023-04-04T09:50:30.501Z,2.60
2023-04-04T09:52:58.377Z,3.13
2023-04-04T09:55:31.513Z,2.47
2023-04-04T09:57:57.908Z,1.75
2023-04-04T10:00:28.473Z,2.10
2023-04-04T10:02:58.279Z,2.50
2023-04-04T10:05:24.920Z,2.30
2023-04-04T10:07:51.463Z,2.50
2023-04-04T10:10:18.239Z,1.67
2023-04-04T10:12:47.992Z,1.10
2023-04-04T10:15:15.761Z,1.92
2023-04-04T10:17:43.867Z,2.58
2023-04-04T10:20:11.369Z,2.20
2023-04-04T10:22:38.682Z,1.50
2023-04-04T10:25:05.894Z,1.50
2023-04-04T10:27:32.806Z,2.08
2023-04-04T10:29:59.983Z,2.78
2023-04-04T10:32:32.560Z,2.30
2023-04-04T10:35:10.952Z,3.38
2023-04-04T10:37:45.737Z,3.10
2023-04-04T10:40:19.718Z,3.05
2023-04-04T10:42:47.445Z,2.70
2023-04-04T10:45:21.173Z,2.45
2023-04-04T10:47:48.578Z,1.60
2023-04-04T10:50:15.341Z,2.60
2023-04-04T10:52:43.064Z,2.20
2023-04-04T10:55:11.425Z,1.80
2023-04-04T10:57:40.614Z,2.10
2023-04-04T11:00:08.285Z,1.60
2023-04-04T11:02:52.978Z,2.28
2023-04-04T11:05:27.406Z,2.05
2023-04-04T11:08:08.799Z,1.58
2023-04-04T11:10:36.651Z,3.30
2023-04-04T11:13:13.391Z,2.85
2023-04-04T11:15:52.645Z,3.03
2023-04-04T11:18:33.043Z,2.15
2023-04-04T11:21:06.756Z,1.92
2023-04-04T11:24:04.644Z,1.70
2023-04-04T11:26:31.248Z,2.50
2023-04-04T11:28:58.636Z,1.90
2023-04-04T11:31:29.233Z,2.53
2023-04-04T11:33:57.049Z,1.98
2023-04-04T11:36:50.629Z,2.30
2023-04-04T11:39:28.750Z,1.80
2023-04-04T11:41:55.449Z,2.17
2023-04-04T11:44:25.239Z,2.35
2023-04-04T11:46:55.965Z,1.65
2023-04-04T11:49:26.422Z,1.77
2023-04-04T11:51:52.810Z,1.90
2023-04-04T11:54:19.150Z,2.22
2023-04-04T11:56:45.839Z,1.52
2023-04-04T11:59:12.872Z,1.60
2023-04-04T12:01:40.445Z,1.40
2023-04-04T12:04:06.866Z,1.83
2023-04-04T12:06:35.561Z,1.67
2023-04-04T12:09:02.339Z,1.95
2023-04-04T12:11:29.391Z,1.80
2023-04-04T12:13:55.706Z,1.80
2023-04-04T12:16:22.095Z,1.60
2023-04-04T12:18:48.995Z,1.10
2023-04-04T12:21:15.797Z,1.85
2023-04-04T12:23:42.150Z,1.60
2023-04-04T12:26:09.445Z,0.98
2023-04-04T12:28:38.098Z,1.92
2023-04-04T12:31:06.589Z,1.90
2023-04-04T12:33:36.990Z,1.85
2023-04-04T12:36:03.846Z,1.50
2023-04-04T12:38:31.419Z,1.20
2023-04-04T12:40:57.928Z,1.70
2023-04-04T12:43:27.296Z,1.65
2023-04-04T12:45:54.467Z,2.15
2023-04-04T12:48:26.777Z,1.90
2023-04-04T12:50:54.618Z,1.80
2023-04-04T12:56:11.335Z,1.70
2023-04-04T12:58:37.930Z,1.85
2023-04-04T13:01:04.569Z,2.47
2023-04-04T13:03:31.069Z,2.40
2023-04-04T13:05:58.277Z,2.10
2023-04-04T13:08:24.868Z,1.63
2023-04-04T13:11:05.255Z,1.58
2023-04-04T13:13:40.052Z,1.52
2023-04-04T13:16:08.097Z,1.30
2023-04-04T13:18:39.318Z,1.20
2023-04-04T13:21:07.292Z,0.70
2023-04-04T13:23:39.488Z,0.82
2023-04-04T13:26:08.058Z,2.40
2023-04-04T13:28:35.067Z,1.90
2023-04-04T13:31:04.887Z,1.25
2023-04-04T13:33:31.655Z,1.10
2023-04-04T13:35:58.263Z,1.20
2023-04-04T13:38:25.967Z,1.20
2023-04-04T13:40:53.954Z,1.23
2023-04-04T13:43:20.378Z,1.40
2023-04-04T13:45:46.921Z,1.60
2023-04-04T13:48:13.325Z,1.60
2023-04-04T13:50:40.322Z,1.38
2023-04-04T13:53:06.769Z,1.00
2023-04-04T13:55:33.138Z,1.20
2023-04-04T13:57:59.491Z,1.20
2023-04-04T14:00:25.930Z,1.50
2023-04-04T14:02:54.361Z,2.15
2023-04-04T14:05:22.306Z,1.13
2023-04-04T14:07:48.697Z,1.75
2023-04-04T14:10:15.050Z,1.55
2023-04-04T14:12:41.698Z,2.10
2023-04-04T14:15:08.475Z,1.98
2023-04-04T14:17:35.362Z,1.80
2023-04-04T14:20:01.814Z,1.63
2023-04-04T14:22:28.150Z,1.98
2023-04-04T14:24:54.631Z,1.55
2023-04-04T14:27:21.037Z,1.30
2023-04-04T14:29:47.384Z,1.00
2023-04-04T14:32:13.891Z,1.25
2023-04-04T14:34:40.398Z,1.98
2023-04-04T14:37:07.227Z,1.65
2023-04-04T14:39:33.620Z,1.60
2023-04-04T14:42:00.419Z,1.30
2023-04-04T14:44:27.442Z,1.20
2023-04-04T14:46:53.848Z,1.40
2023-04-04T14:49:20.342Z,1.00
2023-04-04T14:51:46.742Z,1.10
2023-04-04T14:54:13.035Z,1.88
2023-04-04T14:56:39.357Z,2.15
2023-04-04T14:59:06.594Z,1.48
2023-04-04T15:01:33.034Z,1.10
2023-04-04T15:03:59.392Z,1.90
2023-04-04T15:06:27.444Z,2.03
2023-04-04T15:08:53.818Z,2.47
2023-04-04T15:11:20.279Z,1.40
2023-04-04T15:13:46.650Z,1.50
2023-04-04T15:16:13.039Z,1.70
2023-04-04T15:18:39.402Z,1.50
2023-04-04T15:21:05.939Z,1.23
2023-04-04T15:23:32.401Z,0.85
2023-04-04T15:25:58.749Z,2.38
2023-04-04T15:28:25.227Z,2.33
2023-04-04T15:30:51.532Z,1.60
2023-04-04T15:33:17.824Z,1.73
2023-04-04T15:35:44.345Z,1.63
2023-04-04T15:38:10.731Z,1.60
2023-04-04T15:40:37.124Z,2.08
2023-04-04T15:43:03.535Z,1.35
2023-04-04T15:45:30.020Z,1.33
2023-04-04T15:47:56.410Z,1.25
2023-04-04T15:50:22.790Z,0.82
2023-04-04T15:52:49.421Z,0.80
2023-04-04T15:55:17.106Z,1.65
2023-04-04T15:57:45.379Z,2.10
2023-04-04T16:00:12.948Z,2.00
2023-04-04T16:02:39.442Z,1.75
2023-04-04T16:05:06.173Z,1.17
2023-04-04T16:07:32.519Z,0.90
2023-04-04T16:09:58.927Z,1.67
2023-04-04T16:12:25.258Z,1.10
2023-04-04T16:14:51.623Z,1.33
2023-04-04T16:17:17.923Z,1.35
2023-04-04T16:19:44.405Z,1.25
2023-04-04T16:22:10.792Z,2.22
2023-04-04T16:24:37.315Z,1.80
2023-04-04T16:27:03.728Z,1.70
2023-04-04T16:29:31.287Z,1.20
2023-04-04T16:31:57.781Z,2.55
2023-04-04T16:34:24.079Z,2.13
2023-04-04T16:36:50.450Z,1.35
2023-04-04T16:39:17.057Z,2.15
2023-04-04T16:41:43.679Z,2.03
2023-04-04T16:44:12.249Z,2.35
2023-04-04T16:46:38.761Z,2.60
2023-04-04T16:49:05.082Z,1.50
2023-04-04T16:51:31.979Z,2.20
2023-04-04T16:53:58.522Z,2.40
2023-04-04T16:56:25.214Z,1.30
2023-04-04T16:58:51.553Z,2.10
2023-04-04T17:01:22.463Z,1.40
2023-04-04T17:03:49.236Z,2.30
2023-04-04T17:06:15.820Z,1.70
2023-04-04T17:08:43.156Z,0.95
2023-04-04T17:11:09.509Z,1.10
2023-04-04T17:13:35.854Z,2.50
2023-04-04T17:16:02.274Z,2.35
2023-04-04T17:18:28.759Z,2.17
2023-04-04T17:20:55.123Z,1.85
2023-04-04T17:23:21.472Z,2.47
2023-04-04T17:25:47.860Z,2.30
2023-04-04T17:28:14.263Z,2.20
2023-04-04T17:30:41.652Z,2.10
2023-04-04T17:33:08.198Z,1.42
2023-04-04T17:35:34.675Z,2.30
2023-04-04T17:38:01.152Z,2.35
2023-04-04T17:40:27.689Z,2.38
2023-04-04T17:42:54.102Z,2.40
2023-04-04T17:45:20.610Z,2.10
2023-04-04T17:47:47.038Z,1.80
2023-04-04T17:50:13.488Z,1.80
2023-04-04T17:52:40.013Z,1.90
2023-04-04T17:55:07.371Z,2.22
2023-04-04T17:57:33.748Z,2.47
2023-04-04T18:00:00.075Z,2.60
2023-04-04T18:02:26.545Z,2.55
2023-04-04T18:04:53.063Z,2.08
2023-04-04T18:07:19.413Z,1.85
2023-04-04T18:09:45.921Z,1.90
2023-04-04T18:12:12.357Z,1.92
2023-04-04T18:14:38.833Z,2.20
2023-04-04T18:17:05.365Z,2.42
2023-04-04T18:19:31.909Z,2.20
2023-04-04T18:22:00.395Z,2.30
2023-04-04T18:24:27.235Z,2.83
2023-04-04T18:26:53.965Z,2.60
2023-04-04T18:29:20.608Z,2.58
2023-04-04T18:31:47.189Z,1.80
2023-04-04T18:34:15.197Z,1.65
2023-04-04T18:36:41.650Z,1.70
2023-04-04T18:39:09.013Z,1.45
2023-04-04T18:41:35.433Z,1.45
2023-04-04T18:44:02.008Z,1.58
2023-04-04T18:46:28.396Z,1.55
2023-04-04T18:48:55.470Z,1.40
2023-04-04T18:51:23.617Z,1.30
2023-04-04T18:53:50.270Z,1.30
2023-04-04T18:56:16.625Z,1.25
2023-04-04T18:58:43.014Z,1.55
2023-04-04T19:01:11.345Z,1.23
2023-04-04T19:03:40.804Z,1.10
2023-04-04T19:06:10.114Z,1.30
2023-04-04T19:08:39.357Z,0.93
2023-04-04T19:11:06.033Z,1.10
2023-04-04T19:13:32.507Z,0.80
2023-04-04T19:15:58.997Z,0.70
2023-04-04T19:18:25.554Z,0.50
2023-04-04T19:20:51.840Z,0.45
2023-04-04T19:23:18.184Z,0.90
2023-04-04T19:25:44.535Z,0.60
2023-04-04T19:28:10.974Z,0.50
2023-04-04T19:30:47.763Z,0.35
2023-04-04T19:33:14.089Z,0.30
2023-04-04T19:35:46.698Z,0.50
2023-04-04T19:38:18.606Z,0.40
2023-04-04T19:40:47.870Z,0.30
2023-04-04T19:43:18.314Z,0.40
2023-04-04T19:45:47.780Z,0.30
2023-04-04T19:48:32.829Z,0.30
2023-04-04T19:50:59.271Z,0.30
2023-04-04T19:53:27.987Z,0.30
2023-04-04T19:55:54.449Z,0.30
2023-04-04T19:58:21.608Z,0.50
2023-04-04T20:00:47.944Z,0.20
2023-04-04T20:03:39.613Z,0.20
2023-04-04T20:06:13.128Z,0.30
2023-04-04T20:08:41.319Z,0.80
2023-04-04T20:11:07.928Z,0.65
2023-04-04T20:13:36.041Z,0.50
2023-04-04T20:16:09.475Z,0.40
2023-04-04T20:18:36.820Z,0.40
2023-04-04T20:21:06.395Z,0.30
2023-04-04T20:23:37.835Z,0.38
2023-04-04T20:26:06.023Z,0.38
2023-04-04T20:28:33.035Z,0.30
2023-04-04T20:31:11.658Z,0.40
2023-04-04T20:33:40.003Z,0.30
2023-04-04T20:36:10.871Z,0.40
2023-04-04T20:38:37.951Z,0.32
2023-04-04T20:41:14.229Z,0.40
2023-04-04T20:43:41.033Z,0.50
2023-04-04T20:46:07.372Z,0.60
2023-04-04T20:48:40.312Z,0.47
2023-04-04T20:51:18.933Z,0.50
2023-04-04T20:53:51.353Z,0.65
2023-04-04T20:56:36.588Z,0.60
2023-04-04T20:59:05.482Z,0.52
2023-04-04T21:01:31.838Z,0.50
2023-04-04T21:03:58.318Z,0.60
2023-04-04T21:06:28.895Z,0.70
2023-04-04T21:08:55.491Z,0.40
2023-04-04T21:11:21.874Z,0.50
2023-04-04T21:13:48.223Z,0.43
2023-04-04T21:16:18.203Z,0.75
2023-04-04T21:18:45.177Z,0.60
2023-04-04T21:21:20.948Z,0.70
2023-04-04T21:23:54.307Z,0.70
2023-04-04T21:26:25.845Z,0.95
2023-04-04T21:28:52.360Z,1.00
2023-04-04T21:31:20.934Z,0.75
2023-04-04T21:33:48.469Z,0.70
2023-04-04T21:36:29.070Z,0.80
2023-04-04T21:38:56.804Z,0.90
2023-04-04T21:41:27.421Z,1.05
2023-04-04T21:43:54.523Z,1.00
2023-04-04T21:46:21.961Z,0.95
2023-04-04T21:48:48.336Z,1.17
2023-04-04T21:51:14.772Z,1.10
2023-04-04T21:53:41.112Z,1.17
2023-04-04T21:56:07.401Z,1.23
2023-04-04T21:58:33.998Z,1.27
2023-04-04T22:01:00.753Z,1.00
2023-04-04T22:03:27.038Z,0.68
2023-04-04T22:05:53.345Z,0.90
2023-04-04T22:08:19.674Z,1.02
2023-04-04T22:10:50.053Z,0.70
2023-04-04T22:13:19.549Z,0.60
2023-04-04T22:15:47.113Z,0.80
2023-04-04T22:18:16.842Z,0.70
2023-04-04T22:20:44.315Z,0.88
2023-04-04T22:23:15.657Z,0.60
2023-04-04T22:25:42.032Z,0.70
2023-04-04T22:28:08.896Z,0.70
2023-04-04T22:30:36.322Z,1.52
2023-04-04T22:33:05.249Z,1.33
2023-04-04T22:35:35.086Z,1.10
2023-04-04T22:38:03.036Z,1.55
2023-04-04T22:40:29.996Z,2.60
2023-04-04T22:42:56.497Z,2.40
2023-04-04T22:45:23.824Z,2.10
2023-04-04T22:47:50.488Z,1.42
2023-04-04T22:50:18.067Z,1.70
2023-04-04T22:52:44.520Z,2.63
2023-04-04T22:55:11.481Z,2.90
2023-04-04T22:57:38.008Z,2.17
2023-04-04T23:00:08.278Z,1.50
2023-04-04T23:02:34.647Z,1.33
2023-04-04T23:05:01.120Z,0.90
2023-04-04T23:07:27.721Z,0.90
2023-04-04T23:09:54.129Z,1.17
2023-04-04T23:12:20.866Z,1.40
2023-04-04T23:14:47.210Z,1.17
2023-04-04T23:17:13.587Z,1.10
2023-04-04T23:19:39.984Z,0.60
2023-04-04T23:22:06.604Z,0.50
2023-04-04T23:24:33.045Z,1.02
2023-04-04T23:26:59.405Z,0.63
2023-04-04T23:29:25.706Z,0.73
2023-04-04T23:31:52.089Z,0.70
2023-04-04T23:34:18.374Z,0.50
2023-04-04T23:36:44.671Z,0.47
2023-04-04T23:39:11.002Z,0.40
2023-04-04T23:41:37.409Z,0.55
2023-04-04T23:44:03.716Z,0.93
2023-04-04T23:46:32.532Z,0.40
2023-04-04T23:48:59.038Z,0.63
2023-04-04T23:51:26.298Z,0.60
2023-04-04T23:53:52.630Z,0.47
2023-04-04T23:56:19.083Z,0.40
2023-04-04T23:58:45.460Z,0.40
